createdAt,value
2018-01-26T00:00:23.929Z,100257.87
2018-01-26T00:02:53.049Z,100257.73
2018-01-26T00:05:22.145Z,100248.28
2018-01-26T00:07:51.294Z,100248.16
2018-01-26T00:10:20.417Z,100255.03
2018-01-26T00:12:50.301Z,100251.48
2018-01-26T00:15:19.402Z,100246.86
2018-01-26T00:17:48.553Z,100256.57
2018-01-26T00:20:18.457Z,100264.38
2018-01-26T00:22:47.533Z,100271.16
2018-01-26T00:25:16.649Z,100278.21
2018-01-26T00:27:45.789Z,100286.27
2018-01-26T00:30:15.687Z,100293.48
2018-01-26T00:32:44.775Z,100303.62
2018-01-26T00:35:13.886Z,100307.52
2018-01-26T00:37:43.006Z,100302.66
2018-01-26T00:40:12.131Z,100308.74
2018-01-26T00:42:41.220Z,100307.97
2018-01-26T00:45:10.340Z,100312.38
2018-01-26T00:47:39.458Z,100315.50
2018-01-26T00:50:08.579Z,100310.97
2018-01-26T00:52:37.668Z,100310.97
2018-01-26T00:55:06.781Z,100323.59
2018-01-26T00:57:35.890Z,100325.00
2018-01-26T01:00:05.758Z,100327.58
2018-01-26T01:02:35.637Z,100336.90
2018-01-26T01:05:04.759Z,100334.98
2018-01-26T01:07:33.886Z,100340.25
2018-01-26T01:10:03.005Z,100348.92
2018-01-26T01:12:32.113Z,100341.95
2018-01-26T01:15:01.977Z,100340.95
2018-01-26T01:17:31.098Z,100341.03
2018-01-26T01:20:00.221Z,100342.30
2018-01-26T01:22:29.324Z,100350.66
2018-01-26T01:24:58.461Z,100358.72
2018-01-26T01:27:27.586Z,100344.00
2018-01-26T01:29:57.474Z,100349.69
2018-01-26T01:32:26.570Z,100358.27
2018-01-26T01:34:55.722Z,100355.30
2018-01-26T01:37:24.809Z,100359.63
2018-01-26T01:39:53.939Z,100362.72
2018-01-26T01:42:23.029Z,100360.85
2018-01-26T01:44:52.184Z,100367.73
2018-01-26T01:47:21.263Z,100372.98
2018-01-26T01:49:51.213Z,100378.51
2018-01-26T01:52:21.073Z,100379.36
2018-01-26T01:54:50.201Z,100383.12
2018-01-26T01:57:19.308Z,100388.92
2018-01-26T01:59:49.171Z,100384.34
2018-01-26T02:02:19.054Z,100390.28
2018-01-26T02:04:48.168Z,100384.53
2018-01-26T02:07:17.273Z,100378.30
2018-01-26T02:09:46.386Z,100374.95
2018-01-26T02:12:15.526Z,100375.95
2018-01-26T02:14:44.635Z,100382.75
2018-01-26T02:17:13.756Z,100386.98
2018-01-26T02:19:42.912Z,100389.33
2018-01-26T02:22:11.998Z,100394.78
2018-01-26T02:24:41.133Z,100397.20
2018-01-26T02:27:10.999Z,100397.60
2018-01-26T02:29:40.117Z,100395.88
2018-01-26T02:32:09.993Z,100391.66
2018-01-26T02:34:39.098Z,100399.19
2018-01-26T02:37:08.245Z,100402.24
2018-01-26T02:39:37.371Z,100410.37
2018-01-26T02:42:06.460Z,100404.95
2018-01-26T02:44:37.096Z,100408.38
2018-01-26T02:47:06.940Z,100406.24
2018-01-26T02:49:36.043Z,100414.37
2018-01-26T02:52:05.185Z,100412.76
2018-01-26T02:54:35.054Z,100416.83
2018-01-26T02:57:04.168Z,100408.91
2018-01-26T02:59:33.300Z,100419.80
2018-01-26T03:02:02.397Z,100419.80
2018-01-26T03:04:31.525Z,100417.19
2018-01-26T03:07:00.637Z,100423.81
2018-01-26T03:09:30.498Z,100423.20
2018-01-26T03:11:59.622Z,100424.73
2018-01-26T03:14:29.497Z,100424.83
2018-01-26T03:16:59.396Z,100424.46
2018-01-26T03:19:28.518Z,100430.66
2018-01-26T03:21:57.653Z,100419.87
2018-01-26T03:24:27.521Z,100421.36
2018-01-26T03:26:57.394Z,100420.11
2018-01-26T03:29:27.300Z,100429.31
2018-01-26T03:31:56.402Z,100433.59
2018-01-26T03:34:25.518Z,100427.13
2018-01-26T03:36:54.629Z,100421.98
2018-01-26T03:39:23.758Z,100429.45
2018-01-26T03:41:53.669Z,100428.88
2018-01-26T03:44:22.777Z,100433.87
2018-01-26T03:46:51.878Z,100436.72
2018-01-26T03:49:21.010Z,100438.80
2018-01-26T03:51:50.093Z,100446.77
2018-01-26T03:54:19.219Z,100443.55
2018-01-26T03:56:48.318Z,100445.77
2018-01-26T03:59:17.473Z,100446.25
2018-01-26T04:01:47.390Z,100448.80
2018-01-26T04:04:16.514Z,100454.38
2018-01-26T04:06:45.643Z,100460.86
2018-01-26T04:09:14.730Z,100457.27
2018-01-26T04:11:43.836Z,100460.90
2018-01-26T04:14:12.962Z,100456.19
2018-01-26T04:16:42.085Z,100467.33
2018-01-26T04:19:11.186Z,100468.50
2018-01-26T04:21:41.102Z,100466.17
2018-01-26T04:24:10.189Z,100469.14
2018-01-26T04:26:39.318Z,100470.97
2018-01-26T04:29:08.407Z,100473.12
2018-01-26T04:31:37.520Z,100475.06
2018-01-26T04:34:06.622Z,100483.95
2018-01-26T04:36:36.491Z,100477.44
2018-01-26T04:39:05.607Z,100473.55
2018-01-26T04:41:34.682Z,100483.00
2018-01-26T04:44:03.849Z,100484.28
2018-01-26T04:46:33.014Z,100479.38
2018-01-26T04:49:02.102Z,100482.52
2018-01-26T04:51:31.200Z,100481.00
2018-01-26T04:54:01.105Z,100482.05
2018-01-26T04:56:30.991Z,100486.22
2018-01-26T04:59:00.081Z,100491.44
2018-01-26T05:01:29.200Z,100485.77
2018-01-26T05:03:58.284Z,100489.05
2018-01-26T05:06:27.378Z,100494.69
2018-01-26T05:08:57.257Z,100498.51
2018-01-26T05:11:26.393Z,100499.05
2018-01-26T05:13:55.465Z,100494.58
2018-01-26T05:16:24.550Z,100504.39
2018-01-26T05:18:53.675Z,100496.05
2018-01-26T05:21:22.749Z,100497.27
2018-01-26T05:23:52.612Z,100497.98
2018-01-26T05:26:21.730Z,100500.29
2018-01-26T05:28:50.837Z,100504.44
2018-01-26T05:31:19.925Z,100507.44
2018-01-26T05:33:49.886Z,100513.78
2018-01-26T05:36:19.029Z,100515.52
2018-01-26T05:38:48.141Z,100513.27
2018-01-26T05:41:17.226Z,100517.49
2018-01-26T05:43:46.386Z,100515.43
2018-01-26T05:46:15.487Z,100513.44
2018-01-26T05:48:44.606Z,100513.80
2018-01-26T05:51:13.702Z,100517.14
2018-01-26T05:53:42.812Z,100520.44
2018-01-26T05:56:11.906Z,100525.59
2018-01-26T05:58:41.792Z,100526.98
2018-01-26T06:01:11.678Z,100524.04
2018-01-26T06:03:40.783Z,100528.13
2018-01-26T06:06:09.917Z,100536.45
2018-01-26T06:08:39.023Z,100530.62
2018-01-26T06:11:08.174Z,100532.24
2018-01-26T06:13:37.280Z,100533.90
2018-01-26T06:16:06.397Z,100538.20
2018-01-26T06:18:35.481Z,100542.34
2018-01-26T06:21:04.594Z,100539.48
2018-01-26T06:23:33.681Z,100550.86
2018-01-26T06:26:02.828Z,100548.08
2018-01-26T06:28:31.916Z,100546.66
2018-01-26T06:31:01.004Z,100555.71
2018-01-26T06:33:30.110Z,100560.38
2018-01-26T06:35:59.993Z,100565.45
2018-01-26T06:38:29.862Z,100557.17
2018-01-26T06:40:58.954Z,100559.39
2018-01-26T06:43:28.067Z,100566.22
2018-01-26T06:45:57.183Z,100566.70
2018-01-26T06:48:27.041Z,100574.14
2018-01-26T06:50:56.125Z,100572.41
2018-01-26T06:53:25.257Z,100566.30
2018-01-26T06:55:54.350Z,100572.16
2018-01-26T06:58:24.244Z,100569.45
2018-01-26T07:00:53.347Z,100566.66
2018-01-26T07:03:23.242Z,100579.31
2018-01-26T07:05:52.334Z,100585.66
2018-01-26T07:08:21.485Z,100591.00
2018-01-26T07:10:51.368Z,100592.44
2018-01-26T07:13:20.480Z,100592.15
2018-01-26T07:15:49.588Z,100595.74
2018-01-26T07:18:19.436Z,100604.59
2018-01-26T07:20:49.303Z,100609.89
2018-01-26T07:23:18.404Z,100608.62
2018-01-26T07:25:47.497Z,100612.92
2018-01-26T07:28:17.352Z,100608.78
2018-01-26T07:30:46.450Z,100616.63
2018-01-26T07:33:15.538Z,100620.97
2018-01-26T07:35:45.401Z,100620.75
2018-01-26T07:38:14.509Z,100628.18
2018-01-26T07:40:43.605Z,100623.67
2018-01-26T07:43:12.701Z,100630.53
2018-01-26T07:45:41.812Z,100625.28
2018-01-26T07:48:11.664Z,100624.37
2018-01-26T07:50:40.821Z,100634.34
2018-01-26T07:53:10.688Z,100637.19
2018-01-26T07:55:40.590Z,100634.80
2018-01-26T07:58:10.437Z,100642.42
2018-01-26T08:00:39.582Z,100641.19
2018-01-26T08:03:08.696Z,100646.25
2018-01-26T08:05:37.801Z,100643.71
2018-01-26T08:08:06.912Z,100649.89
2018-01-26T08:10:36.003Z,100645.90
2018-01-26T08:13:05.118Z,100647.89
2018-01-26T08:15:34.236Z,100649.84
2018-01-26T08:18:03.338Z,100655.58
2018-01-26T08:20:32.421Z,100653.70
2018-01-26T08:23:01.558Z,100661.61
2018-01-26T08:25:30.645Z,100664.22
2018-01-26T08:27:59.749Z,100655.45
2018-01-26T08:30:28.887Z,100655.81
2018-01-26T08:32:57.993Z,100664.67
2018-01-26T08:35:27.089Z,100663.76
2018-01-26T08:37:56.185Z,100657.76
2018-01-26T08:40:25.307Z,100652.27
2018-01-26T08:42:54.392Z,100661.02
2018-01-26T08:45:23.514Z,100666.44
2018-01-26T08:47:52.599Z,100665.61
2018-01-26T08:50:22.462Z,100674.91
2018-01-26T08:52:51.545Z,100677.13
2018-01-26T08:55:20.695Z,100670.69
2018-01-26T08:57:49.783Z,100674.39
2018-01-26T09:00:18.947Z,100672.03
2018-01-26T09:02:48.045Z,100678.97
2018-01-26T09:05:17.124Z,100680.73
2018-01-26T09:07:46.231Z,100682.62
2018-01-26T09:10:15.326Z,100680.13
2018-01-26T09:12:44.434Z,100680.59
2018-01-26T09:15:13.530Z,100685.23
2018-01-26T09:17:42.629Z,100687.29
2018-01-26T09:20:12.483Z,100699.20
2018-01-26T09:22:41.610Z,100699.64
2018-01-26T09:25:11.497Z,100693.00
2018-01-26T09:27:41.374Z,100699.77
2018-01-26T09:30:10.466Z,100700.12
2018-01-26T09:32:39.583Z,100699.46
2018-01-26T09:35:08.691Z,100704.19
2018-01-26T09:37:37.784Z,100711.66
2018-01-26T09:40:06.900Z,100713.86
2018-01-26T09:42:36.065Z,100714.02
2018-01-26T09:45:05.903Z,100706.33
2018-01-26T09:47:35.018Z,100716.66
2018-01-26T09:50:04.127Z,100723.30
2018-01-26T09:52:33.234Z,100720.20
2018-01-26T09:55:02.334Z,100723.45
2018-01-26T09:57:31.438Z,100728.41
2018-01-26T10:00:01.327Z,100727.67
2018-01-26T10:02:30.418Z,100736.74
2018-01-26T10:04:59.552Z,100749.95
2018-01-26T10:07:28.636Z,100745.77
2018-01-26T10:09:57.759Z,100755.08
2018-01-26T10:12:26.847Z,100759.67
2018-01-26T10:14:55.964Z,100756.44
2018-01-26T10:17:25.036Z,100761.08
2018-01-26T10:19:54.146Z,100765.18
2018-01-26T10:22:23.247Z,100760.25
2018-01-26T10:24:52.371Z,100757.01
2018-01-26T10:27:21.481Z,100761.27
2018-01-26T10:29:50.571Z,100757.09
2018-01-26T10:32:19.706Z,100762.77
2018-01-26T10:34:48.788Z,100757.14
2018-01-26T10:37:17.914Z,100756.04
2018-01-26T10:39:46.999Z,100766.05
2018-01-26T10:42:16.110Z,100765.09
2018-01-26T10:44:45.978Z,100763.38
2018-01-26T10:47:15.088Z,100760.95
2018-01-26T10:49:44.969Z,100763.34
2018-01-26T10:52:14.842Z,100764.31
2018-01-26T10:54:44.714Z,100760.59
2018-01-26T10:57:14.577Z,100763.89
2018-01-26T10:59:43.708Z,100765.77
2018-01-26T11:02:12.800Z,100756.91
2018-01-26T11:04:41.894Z,100760.06
2018-01-26T11:07:10.989Z,100763.83
2018-01-26T11:09:40.133Z,100762.20
2018-01-26T11:12:09.241Z,100763.61
2018-01-26T11:14:38.369Z,100758.56
2018-01-26T11:17:07.470Z,100760.01
2018-01-26T11:19:36.565Z,100768.56
2018-01-26T11:22:05.950Z,100762.37
2018-01-26T11:24:35.056Z,100772.58
2018-01-26T11:27:04.173Z,100769.98
2018-01-26T11:29:33.281Z,100774.81
2018-01-26T11:32:02.409Z,100774.57
2018-01-26T11:34:31.550Z,100773.10
2018-01-26T11:37:00.671Z,100783.25
2018-01-26T11:39:30.536Z,100781.48
2018-01-26T11:41:59.646Z,100786.94
2018-01-26T11:44:28.777Z,100791.25
2018-01-26T11:46:57.902Z,100788.36
2018-01-26T11:49:27.009Z,100787.75
2018-01-26T11:51:56.122Z,100787.38
2018-01-26T11:54:25.394Z,100790.95
2018-01-26T11:56:54.497Z,100787.52
2018-01-26T11:59:24.351Z,100785.02
2018-01-26T12:01:53.450Z,100803.78
2018-01-26T12:04:22.576Z,100792.33
2018-01-26T12:06:51.646Z,100797.55
2018-01-26T12:09:20.770Z,100800.08
2018-01-26T12:11:49.880Z,100798.71
2018-01-26T12:14:19.022Z,100794.26
2018-01-26T12:16:48.094Z,100795.09
2018-01-26T12:19:17.214Z,100793.55
2018-01-26T12:21:46.305Z,100801.91
2018-01-26T12:24:15.437Z,100802.98
2018-01-26T12:26:44.546Z,100804.49
2018-01-26T12:29:13.644Z,100813.49
2018-01-26T12:31:42.729Z,100811.96
2018-01-26T12:34:11.830Z,100813.67
2018-01-26T12:36:40.949Z,100817.27
2018-01-26T12:39:10.080Z,100821.47
2018-01-26T12:41:39.189Z,100826.08
2018-01-26T12:44:08.303Z,100825.97
2018-01-26T12:46:37.382Z,100814.36
2018-01-26T12:49:06.520Z,100818.27
2018-01-26T12:51:35.612Z,100825.28
2018-01-26T12:54:04.717Z,100826.08
2018-01-26T12:56:33.830Z,100829.81
2018-01-26T12:59:02.947Z,100821.81
2018-01-26T13:01:32.060Z,100824.42
2018-01-26T13:04:01.206Z,100823.73
2018-01-26T13:06:30.354Z,100829.23
2018-01-26T13:09:00.210Z,100826.97
2018-01-26T13:11:29.316Z,100822.16
2018-01-26T13:13:58.409Z,100832.06
2018-01-26T13:16:27.525Z,100837.17
2018-01-26T13:18:56.662Z,100844.98
2018-01-26T13:21:25.790Z,100848.73
2018-01-26T13:23:54.879Z,100847.75
2018-01-26T13:26:24.061Z,100858.95
2018-01-26T13:28:54.425Z,100863.59
2018-01-26T13:31:23.522Z,100864.65
2018-01-26T13:33:52.644Z,100870.34
2018-01-26T13:36:21.740Z,100870.90
2018-01-26T13:38:50.841Z,100874.97
2018-01-26T13:41:19.949Z,100864.53
2018-01-26T13:43:49.065Z,100871.95
2018-01-26T13:46:18.162Z,100877.59
2018-01-26T13:48:47.277Z,100879.42
2018-01-26T13:51:16.375Z,100872.69
2018-01-26T13:53:45.516Z,100866.11
2018-01-26T13:56:15.476Z,100870.91
2018-01-26T13:58:45.354Z,100873.27
2018-01-26T14:01:14.434Z,100883.19
2018-01-26T14:03:43.550Z,100894.95
2018-01-26T14:06:12.658Z,100891.84
2018-01-26T14:08:41.754Z,100896.84
2018-01-26T14:11:10.876Z,100898.03
2018-01-26T14:13:39.970Z,100901.34
2018-01-26T14:16:09.116Z,100905.08
2018-01-26T14:18:38.189Z,100905.28
2018-01-26T14:21:07.316Z,100905.77
2018-01-26T14:23:36.431Z,100917.98
2018-01-26T14:26:05.536Z,100905.87
2018-01-26T14:28:34.633Z,100911.89
2018-01-26T14:31:03.758Z,100911.55
2018-01-26T14:33:32.852Z,100918.00
2018-01-26T14:36:01.954Z,100918.96
2018-01-26T14:38:31.066Z,100925.55
2018-01-26T14:41:00.189Z,100924.97
2018-01-26T14:43:29.306Z,100926.44
2018-01-26T14:45:58.429Z,100929.51
2018-01-26T14:48:28.288Z,100933.38
2018-01-26T14:50:58.203Z,100932.31
2018-01-26T14:53:27.348Z,100945.11
2018-01-26T14:55:57.593Z,100947.59
2018-01-26T14:58:26.704Z,100950.59
2018-01-26T15:00:55.833Z,100954.45
2018-01-26T15:03:24.943Z,100962.03
2018-01-26T15:05:54.029Z,100961.37
2018-01-26T15:08:23.138Z,100961.17
2018-01-26T15:10:52.268Z,100961.66
2018-01-26T15:13:22.125Z,100968.70
2018-01-26T15:15:51.272Z,100975.20
2018-01-26T15:18:20.388Z,100974.16
2018-01-26T15:20:49.535Z,100977.30
2018-01-26T15:23:18.646Z,100981.69
2018-01-26T15:25:47.753Z,100975.53
2018-01-26T15:28:16.877Z,100991.05
2018-01-26T15:30:45.992Z,100983.98
2018-01-26T15:33:15.114Z,100991.23
2018-01-26T15:35:44.978Z,100991.37
2018-01-26T15:38:14.161Z,100995.69
2018-01-26T15:40:44.018Z,100993.97
2018-01-26T15:43:13.123Z,100999.83
2018-01-26T15:45:42.264Z,101000.30
2018-01-26T15:48:11.352Z,101007.78
2018-01-26T15:50:40.478Z,101004.20
2018-01-26T15:53:11.101Z,101007.88
2018-01-26T15:55:40.395Z,101013.63
2018-01-26T15:58:09.508Z,101012.19
2018-01-26T16:00:38.654Z,101013.18
2018-01-26T16:03:07.760Z,101021.30
2018-01-26T16:05:36.850Z,101023.23
2018-01-26T16:08:05.982Z,101028.72
2018-01-26T16:10:35.122Z,101028.20
2018-01-26T16:13:05.012Z,101037.39
2018-01-26T16:15:34.110Z,101040.48
2018-01-26T16:18:03.250Z,101043.45
2018-01-26T16:20:32.342Z,101051.17
2018-01-26T16:23:01.457Z,101050.17
2018-01-26T16:25:30.579Z,101054.23
2018-01-26T16:27:59.728Z,101056.16
2018-01-26T16:30:28.841Z,101068.38
2018-01-26T16:32:57.940Z,101069.22
2018-01-26T16:35:27.039Z,101067.22
2018-01-26T16:37:56.173Z,101075.92
2018-01-26T16:40:25.387Z,101073.80
2018-01-26T16:42:54.526Z,101071.34
2018-01-26T16:45:23.656Z,101078.36
2018-01-26T16:47:52.778Z,101082.22
2018-01-26T16:50:22.640Z,101088.69
2018-01-26T16:52:51.745Z,101099.69
2018-01-26T16:55:20.897Z,101105.45
2018-01-26T16:57:50.060Z,101105.20
2018-01-26T17:00:19.188Z,101106.12
2018-01-26T17:02:48.281Z,101105.25
2018-01-26T17:05:18.194Z,101107.67
2018-01-26T17:07:48.052Z,101115.52
2018-01-26T17:10:17.141Z,101113.47
2018-01-26T17:12:46.238Z,101121.37
2018-01-26T17:15:15.336Z,101118.58
2018-01-26T17:17:44.453Z,101125.92
2018-01-26T17:20:13.589Z,101123.33
2018-01-26T17:22:42.723Z,101134.22
2018-01-26T17:25:11.829Z,101124.38
2018-01-26T17:27:40.969Z,101133.10
2018-01-26T17:30:10.827Z,101146.64
2018-01-26T17:32:39.957Z,101153.12
2018-01-26T17:35:09.062Z,101158.00
2018-01-26T17:37:38.224Z,101157.41
2018-01-26T17:40:07.346Z,101150.86
2018-01-26T17:42:36.466Z,101161.22
2018-01-26T17:45:05.550Z,101159.98
2018-01-26T17:47:34.672Z,101161.29
2018-01-26T17:50:03.814Z,101166.39
2018-01-26T17:52:32.908Z,101176.14
2018-01-26T17:55:02.041Z,101173.66
2018-01-26T17:57:31.138Z,101173.84
2018-01-26T18:00:00.291Z,101179.30
2018-01-26T18:02:30.164Z,101183.36
2018-01-26T18:04:59.298Z,101184.95
2018-01-26T18:07:29.165Z,101187.28
2018-01-26T18:09:59.026Z,101188.25
2018-01-26T18:12:28.182Z,101196.31
2018-01-26T18:14:57.318Z,101196.75
2018-01-26T18:17:26.410Z,101209.99
2018-01-26T18:19:56.294Z,101208.48
2018-01-26T18:22:25.420Z,101211.68
2018-01-26T18:24:54.520Z,101225.51
2018-01-26T18:27:23.675Z,101223.16
2018-01-26T18:29:53.555Z,101231.62
2018-01-26T18:32:22.671Z,101236.26
2018-01-26T18:34:51.798Z,101244.03
2018-01-26T18:37:20.921Z,101248.83
2018-01-26T18:39:50.774Z,101254.43
2018-01-26T18:42:19.886Z,101263.36
2018-01-26T18:44:49.015Z,101262.31
2018-01-26T18:47:18.122Z,101262.58
2018-01-26T18:49:47.448Z,101259.86
2018-01-26T18:52:16.577Z,101269.95
2018-01-26T18:54:45.712Z,101277.89
2018-01-26T18:57:15.579Z,101271.96
2018-01-26T18:59:44.716Z,101281.78
2018-01-26T19:02:13.823Z,101281.41
2018-01-26T19:04:42.983Z,101285.15
2018-01-26T19:07:12.094Z,101283.69
2018-01-26T19:09:41.212Z,101294.07
2018-01-26T19:12:10.312Z,101292.23
2018-01-26T19:14:39.459Z,101294.36
2018-01-26T19:17:08.594Z,101297.07
2018-01-26T19:19:37.685Z,101299.39
2018-01-26T19:22:06.832Z,101297.72
2018-01-26T19:24:35.964Z,101301.87
2018-01-26T19:27:05.083Z,101307.45
2018-01-26T19:29:34.197Z,101308.36
2018-01-26T19:32:03.406Z,101309.00
2018-01-26T19:34:32.525Z,101313.33
2018-01-26T19:37:01.674Z,101316.28
2018-01-26T19:39:31.710Z,101315.47
2018-01-26T19:42:01.606Z,101323.82
2018-01-26T19:44:31.470Z,101323.80
2018-01-26T19:47:00.576Z,101331.17
2018-01-26T19:49:30.483Z,101336.59
2018-01-26T19:51:59.597Z,101336.08
2018-01-26T19:54:29.499Z,101332.47
2018-01-26T19:56:58.645Z,101336.84
2018-01-26T19:59:28.521Z,101336.61
2018-01-26T20:01:57.678Z,101343.72
2018-01-26T20:04:32.258Z,101340.17
2018-01-26T20:07:24.792Z,101350.36
2018-01-26T20:09:53.924Z,101355.47
2018-01-26T20:12:23.790Z,101359.00
2018-01-26T20:14:52.954Z,101361.38
2018-01-26T20:17:22.068Z,101361.88
2018-01-26T20:19:51.199Z,101359.63
2018-01-26T20:22:20.333Z,101357.14
2018-01-26T20:24:49.475Z,101364.55
2018-01-26T20:27:18.613Z,101368.36
2018-01-26T20:29:47.706Z,101360.42
2018-01-26T20:32:19.747Z,101368.53
2018-01-26T20:34:49.652Z,101365.83
2018-01-26T20:37:18.813Z,101367.87
2018-01-26T20:39:48.107Z,101372.42
2018-01-26T20:42:17.284Z,101372.94
2018-01-26T20:44:46.417Z,101377.24
2018-01-26T20:47:15.556Z,101377.91
2018-01-26T20:49:44.666Z,101378.90
2018-01-26T20:52:13.814Z,101385.33
2018-01-26T20:54:42.942Z,101386.98
2018-01-26T20:57:12.072Z,101388.95
2018-01-26T20:59:41.976Z,101393.44
2018-01-26T21:02:11.121Z,101394.25
2018-01-26T21:04:40.257Z,101392.78
2018-01-26T21:07:09.442Z,101396.09
2018-01-26T21:09:38.711Z,101402.84
2018-01-26T21:12:07.842Z,101408.70
2018-01-26T21:14:37.757Z,101403.11
2018-01-26T21:17:07.653Z,101399.75
2018-01-26T21:19:36.791Z,101413.63
2018-01-26T21:22:06.701Z,101404.88
2018-01-26T21:24:35.854Z,101411.12
2018-01-26T21:27:05.759Z,101420.45
2018-01-26T21:29:34.860Z,101418.97
2018-01-26T21:32:03.970Z,101415.77
2018-01-26T21:34:33.117Z,101420.61
2018-01-26T21:37:02.240Z,101421.47
2018-01-26T21:39:32.120Z,101422.51
2018-01-26T21:42:01.236Z,101420.05
2018-01-26T21:44:31.119Z,101425.58
2018-01-26T21:47:00.255Z,101427.93
2018-01-26T21:49:29.379Z,101437.42
2018-01-26T21:51:59.268Z,101435.37
2018-01-26T21:54:28.398Z,101436.94
2018-01-26T21:56:57.551Z,101453.39
2018-01-26T21:59:26.652Z,101453.57
2018-01-26T22:01:56.568Z,101455.33
2018-01-26T22:17:48.499Z,101481.63
2018-01-26T22:20:17.629Z,101481.55
2018-01-26T22:22:46.763Z,101478.27
2018-01-26T22:25:15.874Z,101483.02
2018-01-26T22:27:44.984Z,101488.25
2018-01-26T22:30:14.116Z,101490.36
2018-01-26T22:32:43.981Z,101495.12
2018-01-26T22:35:13.115Z,101501.78
2018-01-26T22:37:42.246Z,101504.46
2018-01-26T22:40:12.106Z,101510.45
2018-01-26T22:42:41.231Z,101511.61
2018-01-26T22:45:10.327Z,101507.44
2018-01-26T22:47:39.445Z,101513.48
2018-01-26T22:50:08.550Z,101514.41
2018-01-26T22:52:37.705Z,101518.06
2018-01-26T22:55:08.307Z,101512.68
2018-01-26T22:57:37.432Z,101524.06
2018-01-26T23:00:06.550Z,101524.34
2018-01-26T23:02:35.695Z,101526.05
2018-01-26T23:05:05.569Z,101520.22
2018-01-26T23:07:34.663Z,101532.50
2018-01-26T23:10:03.799Z,101525.58
2018-01-26T23:12:32.888Z,101525.64
2018-01-26T23:15:01.998Z,101531.25
2018-01-26T23:17:31.894Z,101540.80
2018-01-26T23:20:01.748Z,101541.41
2018-01-26T23:22:30.837Z,101548.87
2018-01-26T23:24:59.953Z,101551.60
2018-01-26T23:27:29.054Z,101554.83
2018-01-26T23:29:58.186Z,101552.52
2018-01-26T23:32:27.293Z,101545.83
2018-01-26T23:34:56.433Z,101542.16
2018-01-26T23:37:25.549Z,101538.48
2018-01-26T23:39:54.657Z,101547.59
2018-01-26T23:42:23.746Z,101553.70
2018-01-26T23:44:52.886Z,101548.02
2018-01-26T23:47:21.996Z,101557.94
2018-01-26T23:49:52.582Z,101569.31
2018-01-26T23:52:21.698Z,101577.17
2018-01-26T23:54:50.801Z,101567.83
2018-01-26T23:57:19.910Z,101570.75
2018-01-26T23:59:49.026Z,101574.55
